createdAt,value
2022-08-06T00:00:08.162Z,2.28
2022-08-06T00:03:01.897Z,1.90
2022-08-06T00:06:06.779Z,1.77
2022-08-06T00:09:15.626Z,1.50
2022-08-06T00:12:19.580Z,1.73
2022-08-06T00:16:06.278Z,1.42
2022-08-06T00:18:48.315Z,1.30
2022-08-06T00:21:54.665Z,1.10
2022-08-06T00:24:59.255Z,1.15
2022-08-06T00:28:09.818Z,1.20
2022-08-06T00:31:15.451Z,1.20
2022-08-06T00:34:20.414Z,1.27
2022-08-06T00:37:28.905Z,1.10
2022-08-06T00:40:58.536Z,0.95
2022-08-06T00:44:04.262Z,1.00
2022-08-06T00:47:23.406Z,1.00
2022-08-06T00:50:33.009Z,1.20
2022-08-06T00:53:37.983Z,0.80
2022-08-06T00:56:42.061Z,0.98
2022-08-06T00:59:48.325Z,0.80
2022-08-06T01:02:56.135Z,1.10
2022-08-06T01:06:07.114Z,0.82
2022-08-06T01:09:24.568Z,1.00
2022-08-06T01:12:33.871Z,0.90
2022-08-06T01:16:07.430Z,0.73
2022-08-06T01:19:50.975Z,1.00
2022-08-06T01:23:32.642Z,1.10
2022-08-06T01:26:47.410Z,0.98
2022-08-06T01:30:05.973Z,0.93
2022-08-06T01:33:24.951Z,0.80
2022-08-06T01:37:00.051Z,0.82
2022-08-06T01:40:09.758Z,0.80
2022-08-06T01:44:05.027Z,0.73
2022-08-06T01:46:45.542Z,0.65
2022-08-06T01:50:00.773Z,0.70
2022-08-06T01:53:15.712Z,0.80
2022-08-06T01:56:25.936Z,0.50
2022-08-06T01:59:38.949Z,0.77
2022-08-06T02:02:46.423Z,0.75
2022-08-06T02:05:54.457Z,0.65
2022-08-06T02:09:22.093Z,0.68
2022-08-06T02:12:31.395Z,1.00
2022-08-06T02:15:58.903Z,0.75
2022-08-06T02:19:10.357Z,0.80
2022-08-06T02:22:26.829Z,0.80
2022-08-06T02:25:34.423Z,0.65
2022-08-06T02:28:40.445Z,0.80
2022-08-06T02:31:50.347Z,0.93
2022-08-06T02:34:55.962Z,0.80
2022-08-06T02:38:07.976Z,0.70
2022-08-06T02:41:38.231Z,0.77
2022-08-06T02:44:53.419Z,0.68
2022-08-06T02:48:09.246Z,0.85
2022-08-06T02:51:43.909Z,1.00
2022-08-06T02:54:58.574Z,1.00
2022-08-06T02:58:15.257Z,0.80
2022-08-06T03:01:24.503Z,1.15
2022-08-06T03:04:33.289Z,0.75
2022-08-06T03:07:41.033Z,0.77
2022-08-06T03:10:46.180Z,0.90
2022-08-06T03:13:52.181Z,0.88
2022-08-06T03:16:58.302Z,0.63
2022-08-06T03:20:04.495Z,1.08
2022-08-06T03:23:12.429Z,0.95
2022-08-06T03:26:16.727Z,1.00
2022-08-06T03:29:26.186Z,0.88
2022-08-06T03:32:52.242Z,1.00
2022-08-06T03:36:00.640Z,1.10
2022-08-06T03:39:08.517Z,0.80
2022-08-06T03:42:14.140Z,0.80
2022-08-06T03:45:23.894Z,0.73
2022-08-06T03:48:42.409Z,1.02
2022-08-06T03:51:54.535Z,1.35
2022-08-06T03:55:04.806Z,0.90
2022-08-06T03:58:12.501Z,0.93
2022-08-06T04:01:49.932Z,0.85
2022-08-06T04:04:55.768Z,0.98
2022-08-06T04:08:05.444Z,1.00
2022-08-06T04:12:11.004Z,0.90
2022-08-06T04:14:36.376Z,0.90
2022-08-06T04:17:47.833Z,0.93
2022-08-06T04:21:17.003Z,1.10
2022-08-06T04:24:20.210Z,1.00
2022-08-06T04:27:30.679Z,0.93
2022-08-06T04:30:36.459Z,0.98
2022-08-06T04:33:47.213Z,1.10
2022-08-06T04:36:58.612Z,1.05
2022-08-06T04:40:03.858Z,1.00
2022-08-06T04:43:10.678Z,1.00
2022-08-06T04:46:19.639Z,0.98
2022-08-06T04:49:57.452Z,1.23
2022-08-06T04:56:03.746Z,1.00
2022-08-06T04:59:08.251Z,1.20
2022-08-06T05:02:12.878Z,1.20
2022-08-06T05:05:21.229Z,1.30
2022-08-06T05:08:28.937Z,1.35
2022-08-06T05:11:41.674Z,1.40
2022-08-06T05:15:27.261Z,1.27
2022-08-06T05:19:20.955Z,1.30
2022-08-06T05:22:05.238Z,1.30
2022-08-06T05:25:22.756Z,1.30
2022-08-06T05:28:32.321Z,1.30
2022-08-06T05:31:40.533Z,1.10
2022-08-06T05:34:51.600Z,1.10
2022-08-06T05:38:01.870Z,1.00
2022-08-06T05:41:10.842Z,1.10
2022-08-06T05:44:15.362Z,1.27
2022-08-06T05:47:24.396Z,0.90
2022-08-06T05:50:33.662Z,1.15
2022-08-06T05:54:03.849Z,1.40
2022-08-06T05:57:16.577Z,1.30
2022-08-06T06:00:41.547Z,1.00
2022-08-06T06:03:48.881Z,1.00
2022-08-06T06:06:55.273Z,1.13
2022-08-06T06:10:03.886Z,1.20
2022-08-06T06:13:24.892Z,1.00
2022-08-06T06:17:02.151Z,1.20
2022-08-06T06:20:58.425Z,1.20
2022-08-06T06:23:55.411Z,1.17
2022-08-06T06:27:35.601Z,1.30
2022-08-06T06:31:02.185Z,1.27
2022-08-06T06:34:12.155Z,1.00
2022-08-06T06:37:40.696Z,0.98
2022-08-06T06:41:00.307Z,1.00
2022-08-06T06:44:49.387Z,1.00
2022-08-06T06:48:00.904Z,1.00
2022-08-06T06:51:27.241Z,1.13
2022-08-06T06:54:43.048Z,0.70
2022-08-06T06:57:57.137Z,0.93
2022-08-06T07:01:11.953Z,0.85
2022-08-06T07:04:19.831Z,0.85
2022-08-06T07:07:25.150Z,0.85
2022-08-06T07:10:31.617Z,0.90
2022-08-06T07:13:48.101Z,0.90
2022-08-06T07:16:57.473Z,0.90
2022-08-06T07:20:08.454Z,0.85
2022-08-06T07:24:06.998Z,1.08
2022-08-06T07:26:48.056Z,1.10
2022-08-06T07:30:00.284Z,0.80
2022-08-06T07:33:05.516Z,0.88
2022-08-06T07:36:17.345Z,0.95
2022-08-06T07:39:34.238Z,0.80
2022-08-06T07:42:40.231Z,0.90
2022-08-06T07:45:54.733Z,0.70
2022-08-06T07:49:05.682Z,0.98
2022-08-06T07:52:17.910Z,0.80
2022-08-06T07:55:26.489Z,1.00
2022-08-06T07:58:45.712Z,1.40
2022-08-06T08:01:50.675Z,0.80
2022-08-06T08:05:13.562Z,0.90
2022-08-06T08:08:21.076Z,0.80
2022-08-06T08:11:37.733Z,0.70
2022-08-06T08:14:54.146Z,0.80
2022-08-06T08:17:59.100Z,0.90
2022-08-06T08:21:04.347Z,0.80
2022-08-06T08:24:12.671Z,0.90
2022-08-06T08:27:21.812Z,0.85
2022-08-06T08:30:27.332Z,1.17
2022-08-06T08:33:36.548Z,1.00
2022-08-06T08:36:41.097Z,1.13
2022-08-06T08:39:45.287Z,0.73
2022-08-06T08:42:55.179Z,0.77
2022-08-06T08:46:03.536Z,1.00
2022-08-06T08:49:12.289Z,0.82
2022-08-06T08:52:29.030Z,0.70
2022-08-06T08:57:08.860Z,1.00
2022-08-06T08:59:17.737Z,0.63
2022-08-06T09:02:28.138Z,0.73
2022-08-06T09:05:34.536Z,0.90
2022-08-06T09:08:59.632Z,0.80
2022-08-06T09:12:19.626Z,0.65
2022-08-06T09:15:28.294Z,0.80
2022-08-06T09:18:36.977Z,0.70
2022-08-06T09:21:43.496Z,1.02
2022-08-06T09:24:47.764Z,0.90
2022-08-06T09:27:51.891Z,0.77
2022-08-06T09:31:10.671Z,0.60
2022-08-06T09:34:53.039Z,0.90
2022-08-06T09:38:06.277Z,0.63
2022-08-06T09:41:15.379Z,0.80
2022-08-06T09:44:35.623Z,0.60
2022-08-06T09:47:42.466Z,0.70
2022-08-06T09:50:51.635Z,0.70
2022-08-06T09:54:21.940Z,0.68
2022-08-06T09:57:33.277Z,0.57
2022-08-06T10:00:39.984Z,0.68
2022-08-06T10:04:04.859Z,0.60
2022-08-06T10:07:08.963Z,0.40
2022-08-06T10:10:28.597Z,0.60
2022-08-06T10:17:11.103Z,0.68
2022-08-06T10:20:19.270Z,0.55
2022-08-06T10:23:24.458Z,0.60
2022-08-06T10:26:33.566Z,0.63
2022-08-06T10:30:01.910Z,0.80
2022-08-06T10:33:22.569Z,0.57
2022-08-06T10:36:35.252Z,0.60
2022-08-06T10:40:06.996Z,0.60
2022-08-06T10:43:12.512Z,0.50
2022-08-06T10:46:17.145Z,0.50
2022-08-06T10:50:26.938Z,0.80
2022-08-06T10:52:47.873Z,0.77
2022-08-06T10:55:51.913Z,0.60
2022-08-06T10:58:56.378Z,0.70
2022-08-06T11:02:09.162Z,0.60
2022-08-06T11:05:21.046Z,0.75
2022-08-06T11:08:59.464Z,0.50
2022-08-06T11:12:35.479Z,0.50
2022-08-06T11:15:43.128Z,0.60
2022-08-06T11:19:18.440Z,1.00
2022-08-06T11:22:43.275Z,0.52
2022-08-06T11:26:03.573Z,0.70
2022-08-06T11:29:10.805Z,0.50
2022-08-06T11:32:48.963Z,0.43
2022-08-06T11:35:54.990Z,0.45
2022-08-06T11:39:15.793Z,0.40
2022-08-06T11:42:41.769Z,0.57
2022-08-06T11:46:31.577Z,0.60
2022-08-06T11:49:48.352Z,0.43
2022-08-06T11:52:52.450Z,0.50
2022-08-06T11:56:06.414Z,0.52
2022-08-06T11:59:15.374Z,0.40
2022-08-06T12:02:44.585Z,0.70
2022-08-06T12:05:56.694Z,0.68
2022-08-06T12:09:11.890Z,0.63
2022-08-06T12:12:26.582Z,0.52
2022-08-06T12:15:59.922Z,0.60
2022-08-06T12:18:56.151Z,0.60
2022-08-06T12:22:00.541Z,0.50
2022-08-06T12:25:11.161Z,0.57
2022-08-06T12:28:18.778Z,0.60
2022-08-06T12:31:36.058Z,0.50
2022-08-06T12:34:58.249Z,0.38
2022-08-06T12:38:03.498Z,0.40
2022-08-06T12:41:11.006Z,0.50
2022-08-06T12:44:20.313Z,0.52
2022-08-06T12:48:03.794Z,0.40
2022-08-06T12:51:11.181Z,0.70
2022-08-06T12:54:26.237Z,0.93
2022-08-06T12:57:58.212Z,0.50
2022-08-06T13:00:58.378Z,0.50
2022-08-06T13:04:08.777Z,0.60
2022-08-06T13:07:15.737Z,0.50
2022-08-06T13:10:35.121Z,0.40
2022-08-06T13:14:13.914Z,0.70
2022-08-06T13:17:18.979Z,0.50
2022-08-06T13:20:45.043Z,0.47
2022-08-06T13:23:53.295Z,0.50
2022-08-06T13:26:58.660Z,0.50
2022-08-06T13:30:32.460Z,0.60
2022-08-06T13:33:31.911Z,0.40
2022-08-06T13:36:43.205Z,0.50
2022-08-06T13:39:54.015Z,0.55
2022-08-06T13:42:59.797Z,0.50
2022-08-06T13:46:07.051Z,0.40
2022-08-06T13:49:15.417Z,0.57
2022-08-06T13:52:19.513Z,0.70
2022-08-06T13:55:26.029Z,0.60
2022-08-06T13:58:30.666Z,0.45
2022-08-06T14:01:45.853Z,0.45
2022-08-06T14:04:51.072Z,0.32
2022-08-06T14:07:55.489Z,0.73
2022-08-06T14:10:59.723Z,0.60
2022-08-06T14:14:04.069Z,0.50
2022-08-06T14:17:09.495Z,0.47
2022-08-06T14:20:19.433Z,0.57
2022-08-06T14:23:39.952Z,0.50
2022-08-06T14:26:45.050Z,0.50
2022-08-06T14:30:26.933Z,0.63
2022-08-06T14:33:19.428Z,0.40
2022-08-06T14:36:35.997Z,0.60
2022-08-06T14:39:59.036Z,0.63
2022-08-06T14:43:23.754Z,0.60
2022-08-06T14:46:31.870Z,0.30
2022-08-06T14:49:51.868Z,0.57
2022-08-06T14:52:56.120Z,0.50
2022-08-06T14:56:08.295Z,0.50
2022-08-06T14:59:12.486Z,0.57
2022-08-06T15:02:18.239Z,0.57
2022-08-06T15:05:40.807Z,0.40
2022-08-06T15:08:49.044Z,0.50
2022-08-06T15:12:00.174Z,0.47
2022-08-06T15:15:09.168Z,0.60
2022-08-06T15:18:54.091Z,0.40
2022-08-06T15:21:51.136Z,0.50
2022-08-06T15:25:00.923Z,0.60
2022-08-06T15:28:07.507Z,0.40
2022-08-06T15:31:14.738Z,0.40
2022-08-06T15:34:20.560Z,0.50
2022-08-06T15:37:52.892Z,0.50
2022-08-06T15:40:56.640Z,0.77
2022-08-06T15:44:00.971Z,0.50
2022-08-06T15:47:05.538Z,0.80
2022-08-06T15:50:09.841Z,0.40
2022-08-06T15:53:23.378Z,0.40
2022-08-06T15:56:39.112Z,0.60
2022-08-06T15:59:55.298Z,0.50
2022-08-06T16:02:59.664Z,0.43
2022-08-06T16:06:16.703Z,0.38
2022-08-06T16:09:30.028Z,0.60
2022-08-06T16:12:44.628Z,0.43
2022-08-06T16:15:52.109Z,0.47
2022-08-06T16:18:56.680Z,0.57
2022-08-06T16:22:02.602Z,0.47
2022-08-06T16:25:08.204Z,0.55
2022-08-06T16:28:17.157Z,0.55
2022-08-06T16:31:37.701Z,0.70
2022-08-06T16:34:57.139Z,0.55
2022-08-06T16:38:01.594Z,0.60
2022-08-06T16:41:05.882Z,0.63
2022-08-06T16:44:12.961Z,0.40
2022-08-06T16:47:17.543Z,0.60
2022-08-06T16:50:26.152Z,0.50
2022-08-06T16:54:08.125Z,0.77
2022-08-06T16:56:56.258Z,0.60
2022-08-06T17:00:06.057Z,0.60
2022-08-06T17:03:11.137Z,0.40
2022-08-06T17:06:17.266Z,0.50
2022-08-06T17:09:21.898Z,0.40
2022-08-06T17:12:26.596Z,0.60
2022-08-06T17:15:36.810Z,1.00
2022-08-06T17:18:42.914Z,0.38
2022-08-06T17:21:59.201Z,0.50
2022-08-06T17:25:06.247Z,0.60
2022-08-06T17:28:12.445Z,0.77
2022-08-06T17:34:42.475Z,0.55
2022-08-06T17:37:52.649Z,0.60
2022-08-06T17:40:56.760Z,0.77
2022-08-06T17:44:03.477Z,0.73
2022-08-06T17:47:09.963Z,0.70
2022-08-06T17:50:16.724Z,0.70
2022-08-06T17:53:21.844Z,1.30
2022-08-06T17:56:29.172Z,1.10
2022-08-06T17:59:34.552Z,1.00
2022-08-06T18:02:49.081Z,0.95
2022-08-06T18:05:56.912Z,1.20
2022-08-06T18:10:09.439Z,1.00
2022-08-06T18:12:26.774Z,0.93
2022-08-06T18:15:40.433Z,0.60
2022-08-06T18:18:46.956Z,0.80
2022-08-06T18:21:52.203Z,0.80
2022-08-06T18:24:56.918Z,1.00
2022-08-06T18:28:05.633Z,0.70
2022-08-06T18:31:10.651Z,0.90
2022-08-06T18:34:16.144Z,0.80
2022-08-06T18:37:24.978Z,0.77
2022-08-06T18:40:40.761Z,0.70
2022-08-06T18:43:54.654Z,0.68
2022-08-06T18:47:03.549Z,0.60
2022-08-06T18:50:16.625Z,0.68
2022-08-06T18:53:26.799Z,0.60
2022-08-06T18:56:49.607Z,0.70
2022-08-06T18:59:55.858Z,0.57
2022-08-06T19:03:01.896Z,0.80
2022-08-06T19:06:06.404Z,0.80
2022-08-06T19:09:10.569Z,0.80
2022-08-06T19:12:21.003Z,0.80
2022-08-06T19:15:44.996Z,0.82
2022-08-06T19:18:51.055Z,0.70
2022-08-06T19:22:01.739Z,0.98
2022-08-06T19:25:09.515Z,1.17
2022-08-06T19:28:36.444Z,2.53
2022-08-06T19:31:41.806Z,1.40
2022-08-06T19:34:47.827Z,1.55
2022-08-06T19:37:59.868Z,1.48
2022-08-06T19:41:06.880Z,1.25
2022-08-06T19:44:24.410Z,1.40
2022-08-06T19:47:38.860Z,1.50
2022-08-06T19:50:44.434Z,1.35
2022-08-06T19:53:55.784Z,1.83
2022-08-06T19:57:00.622Z,1.48
2022-08-06T20:00:56.061Z,1.80
2022-08-06T20:03:31.749Z,1.83
2022-08-06T20:07:01.044Z,2.13
2022-08-06T20:10:03.182Z,1.50
2022-08-06T20:13:09.396Z,1.63
2022-08-06T20:16:13.449Z,1.67
2022-08-06T20:19:17.389Z,1.40
2022-08-06T20:22:42.286Z,1.58
2022-08-06T20:26:09.114Z,1.80
2022-08-06T20:29:21.858Z,1.60
2022-08-06T20:32:26.495Z,1.40
2022-08-06T20:35:32.561Z,1.52
2022-08-06T20:38:43.686Z,1.50
2022-08-06T20:42:02.322Z,1.30
2022-08-06T20:45:20.770Z,1.73
2022-08-06T20:48:28.509Z,1.65
2022-08-06T20:51:32.677Z,1.70
2022-08-06T20:54:38.475Z,1.73
2022-08-06T20:57:48.521Z,1.80
2022-08-06T21:00:53.129Z,1.77
2022-08-06T21:05:15.310Z,1.83
2022-08-06T21:07:31.373Z,1.80
2022-08-06T21:10:41.573Z,1.70
2022-08-06T21:14:03.988Z,1.50
2022-08-06T21:17:13.315Z,1.60
2022-08-06T21:20:23.133Z,1.80
2022-08-06T21:23:55.476Z,1.80
2022-08-06T21:26:51.973Z,1.85
2022-08-06T21:30:09.102Z,1.92
2022-08-06T21:33:17.083Z,1.60
2022-08-06T21:36:26.187Z,2.00
2022-08-06T21:39:55.855Z,1.80
2022-08-06T21:42:57.835Z,1.75
2022-08-06T21:46:04.793Z,1.80
2022-08-06T21:49:10.982Z,1.65
2022-08-06T21:52:28.475Z,1.90
2022-08-06T21:56:38.868Z,1.75
2022-08-06T21:59:00.668Z,1.80
2022-08-06T22:02:09.842Z,1.60
2022-08-06T22:06:20.125Z,1.77
2022-08-06T22:08:54.306Z,2.00
2022-08-06T22:12:40.459Z,2.10
2022-08-06T22:15:24.692Z,1.95
2022-08-06T22:18:35.154Z,1.80
2022-08-06T22:21:49.677Z,2.17
2022-08-06T22:24:55.285Z,1.75
2022-08-06T22:28:02.126Z,1.80
2022-08-06T22:31:08.148Z,1.85
2022-08-06T22:34:12.633Z,2.20
2022-08-06T22:37:18.992Z,2.20
2022-08-06T22:40:45.533Z,1.98
2022-08-06T22:43:57.270Z,2.05
2022-08-06T22:47:01.696Z,2.10
2022-08-06T22:50:07.249Z,2.03
2022-08-06T22:54:29.562Z,2.05
2022-08-06T23:00:11.070Z,1.67
2022-08-06T23:03:13.342Z,1.70
2022-08-06T23:06:18.731Z,1.88
2022-08-06T23:09:32.981Z,1.90
2022-08-06T23:12:37.899Z,1.63
2022-08-06T23:15:42.737Z,1.58
2022-08-06T23:18:50.821Z,1.80
2022-08-06T23:22:01.929Z,1.70
2022-08-06T23:25:59.401Z,1.70
2022-08-06T23:28:34.087Z,1.50
2022-08-06T23:31:39.268Z,1.70
2022-08-06T23:34:43.451Z,1.70
2022-08-06T23:37:55.387Z,1.58
2022-08-06T23:41:16.149Z,1.50
2022-08-06T23:44:23.903Z,1.60
2022-08-06T23:47:54.998Z,1.70
2022-08-06T23:50:56.916Z,1.70
2022-08-06T23:54:07.544Z,1.55
2022-08-06T23:57:17.627Z,1.17
